createdAt,value
2019-05-29T00:00:14.649Z,8.38
2019-05-29T00:03:18.675Z,8.33
2019-05-29T00:06:22.400Z,8.18
2019-05-29T00:09:26.170Z,8.15
2019-05-29T00:12:30.118Z,8.11
2019-05-29T00:15:33.828Z,8.06
2019-05-29T00:18:37.866Z,7.97
2019-05-29T00:21:41.569Z,8.04
2019-05-29T00:24:45.623Z,7.90
2019-05-29T00:27:49.310Z,7.91
2019-05-29T00:30:53.392Z,7.91
2019-05-29T00:33:57.113Z,7.83
2019-05-29T00:37:00.839Z,7.72
2019-05-29T00:40:06.732Z,7.71
2019-05-29T00:43:11.194Z,7.74
2019-05-29T00:46:15.573Z,7.65
2019-05-29T00:49:19.328Z,7.56
2019-05-29T00:52:23.031Z,7.59
2019-05-29T00:55:26.714Z,7.53
2019-05-29T00:58:30.428Z,7.57
2019-05-29T01:01:34.338Z,7.47
2019-05-29T01:04:38.341Z,7.45
2019-05-29T01:07:42.370Z,7.44
2019-05-29T01:10:46.487Z,7.38
2019-05-29T01:13:50.497Z,7.33
2019-05-29T01:16:54.255Z,7.32
2019-05-29T01:19:58.196Z,7.26
2019-05-29T01:23:02.219Z,7.19
2019-05-29T01:26:05.906Z,7.18
2019-05-29T01:29:09.606Z,7.25
2019-05-29T01:32:13.523Z,7.20
2019-05-29T01:35:17.859Z,7.17
2019-05-29T01:38:21.798Z,7.18
2019-05-29T01:41:25.739Z,7.19
2019-05-29T01:44:29.461Z,7.19
2019-05-29T01:47:33.439Z,7.09
2019-05-29T01:50:37.463Z,7.12
2019-05-29T01:53:41.483Z,7.03
2019-05-29T01:56:45.566Z,7.05
2019-05-29T01:59:49.563Z,6.95
2019-05-29T02:02:53.584Z,6.84
2019-05-29T02:05:57.273Z,6.86
2019-05-29T02:09:00.968Z,6.74
2019-05-29T02:12:05.553Z,6.82
2019-05-29T02:15:23.005Z,6.80
2019-05-29T02:18:16.781Z,6.80
2019-05-29T02:21:20.566Z,6.76
2019-05-29T02:24:25.433Z,6.73
2019-05-29T02:27:29.216Z,6.80
2019-05-29T02:30:32.929Z,6.70
2019-05-29T02:33:36.934Z,6.63
2019-05-29T02:36:41.002Z,6.66
2019-05-29T02:39:44.689Z,6.75
2019-05-29T02:42:49.256Z,6.75
2019-05-29T02:45:54.969Z,6.76
2019-05-29T02:48:58.701Z,6.69
2019-05-29T02:52:02.388Z,6.59
2019-05-29T02:55:07.828Z,6.63
2019-05-29T02:58:12.023Z,6.52
2019-05-29T03:01:15.782Z,6.56
2019-05-29T03:04:19.467Z,6.52
2019-05-29T03:07:24.345Z,6.55
2019-05-29T03:10:28.740Z,6.56
2019-05-29T03:13:33.702Z,6.56
2019-05-29T03:16:37.705Z,6.63
2019-05-29T03:19:41.625Z,6.60
2019-05-29T03:22:45.305Z,6.70
2019-05-29T03:25:49.042Z,6.61
2019-05-29T03:28:53.058Z,6.60
2019-05-29T03:31:56.748Z,6.57
2019-05-29T03:35:00.816Z,6.60
2019-05-29T03:38:04.610Z,6.58
2019-05-29T03:41:08.416Z,6.57
2019-05-29T03:44:12.144Z,6.60
2019-05-29T03:47:16.112Z,6.63
2019-05-29T03:50:19.954Z,6.64
2019-05-29T03:53:23.728Z,6.64
2019-05-29T03:56:28.278Z,6.68
2019-05-29T03:59:32.763Z,6.72
2019-05-29T04:02:38.185Z,6.82
2019-05-29T04:05:42.154Z,6.77
2019-05-29T04:08:45.864Z,6.80
2019-05-29T04:11:50.047Z,6.77
2019-05-29T04:14:54.708Z,6.91
2019-05-29T04:18:00.252Z,6.93
2019-05-29T04:21:04.656Z,6.96
2019-05-29T04:24:08.987Z,6.96
2019-05-29T04:27:13.776Z,7.08
2019-05-29T04:30:17.867Z,7.18
2019-05-29T04:33:21.928Z,7.16
2019-05-29T04:36:25.919Z,7.23
2019-05-29T04:39:30.627Z,7.30
2019-05-29T04:42:35.785Z,7.36
2019-05-29T04:45:40.373Z,7.46
2019-05-29T04:48:44.068Z,7.52
2019-05-29T04:51:48.188Z,7.57
2019-05-29T04:54:51.889Z,7.63
2019-05-29T04:57:56.067Z,7.71
2019-05-29T05:01:00.129Z,7.75
2019-05-29T05:04:03.970Z,7.89
2019-05-29T05:07:07.796Z,7.88
2019-05-29T05:10:12.369Z,8.02
2019-05-29T05:13:16.364Z,8.10
2019-05-29T05:16:20.106Z,8.14
2019-05-29T05:19:23.828Z,8.28
2019-05-29T05:22:27.875Z,8.62
2019-05-29T05:25:32.217Z,8.48
2019-05-29T05:28:36.525Z,8.54
2019-05-29T05:31:40.839Z,9.29
2019-05-29T05:34:44.658Z,9.48
2019-05-29T05:37:48.342Z,9.27
2019-05-29T05:40:52.029Z,9.41
2019-05-29T05:43:55.738Z,9.76
2019-05-29T05:46:59.434Z,10.03
2019-05-29T05:50:03.385Z,10.09
2019-05-29T05:53:07.103Z,10.18
2019-05-29T05:56:10.859Z,10.22
2019-05-29T05:59:14.782Z,10.14
2019-05-29T06:02:18.483Z,10.28
2019-05-29T06:05:22.469Z,10.44
2019-05-29T06:08:26.283Z,10.49
2019-05-29T06:11:30.006Z,10.68
2019-05-29T06:14:34.371Z,10.65
2019-05-29T06:17:38.779Z,10.83
2019-05-29T06:20:43.260Z,10.83
2019-05-29T06:23:47.579Z,11.14
2019-05-29T06:26:51.279Z,10.82
2019-05-29T06:29:55.214Z,10.92
2019-05-29T06:32:58.951Z,11.00
2019-05-29T06:36:02.643Z,11.00
2019-05-29T06:39:07.686Z,11.19
2019-05-29T06:42:11.785Z,11.19
2019-05-29T06:45:21.511Z,11.39
2019-05-29T06:48:41.294Z,11.43
2019-05-29T06:51:32.635Z,11.25
2019-05-29T06:54:37.757Z,11.47
2019-05-29T06:57:42.637Z,11.48
2019-05-29T07:00:46.923Z,11.62
2019-05-29T07:03:50.638Z,11.98
2019-05-29T07:06:54.637Z,11.77
2019-05-29T07:09:58.348Z,11.59
2019-05-29T07:13:02.048Z,12.09
2019-05-29T07:16:05.896Z,12.25
2019-05-29T07:19:24.775Z,12.05
2019-05-29T07:22:15.119Z,11.73
2019-05-29T07:25:18.903Z,11.91
2019-05-29T07:28:23.005Z,11.89
2019-05-29T07:31:26.732Z,12.32
2019-05-29T07:34:47.437Z,12.16
2019-05-29T07:37:37.727Z,12.10
2019-05-29T07:40:42.677Z,12.27
2019-05-29T07:43:48.098Z,12.49
2019-05-29T07:46:52.244Z,12.84
2019-05-29T07:49:55.945Z,12.97
2019-05-29T07:52:59.920Z,12.81
2019-05-29T07:56:03.708Z,12.65
2019-05-29T07:59:07.433Z,12.69
2019-05-29T08:02:11.144Z,12.51
2019-05-29T08:05:16.618Z,13.03
2019-05-29T08:08:20.316Z,12.99
2019-05-29T08:11:24.022Z,12.85
2019-05-29T08:14:27.947Z,12.65
2019-05-29T08:17:31.885Z,12.81
2019-05-29T08:20:35.596Z,12.67
2019-05-29T08:23:40.284Z,12.54
2019-05-29T08:26:44.859Z,12.76
2019-05-29T08:29:48.846Z,12.78
2019-05-29T08:32:52.604Z,12.42
2019-05-29T08:36:00.150Z,12.60
2019-05-29T08:39:01.736Z,12.80
2019-05-29T08:42:22.696Z,13.24
2019-05-29T08:45:11.653Z,13.45
2019-05-29T08:48:15.410Z,13.32
2019-05-29T08:51:19.150Z,13.15
2019-05-29T08:54:24.354Z,13.29
2019-05-29T08:57:28.630Z,12.86
2019-05-29T09:00:32.336Z,12.76
2019-05-29T09:03:36.077Z,12.69
2019-05-29T09:06:40.062Z,12.79
2019-05-29T09:09:44.893Z,12.65
2019-05-29T09:12:56.628Z,12.57
2019-05-29T09:15:54.486Z,12.58
2019-05-29T09:18:58.219Z,12.61
2019-05-29T09:22:02.191Z,12.69
2019-05-29T09:25:06.483Z,13.23
2019-05-29T09:28:16.600Z,13.62
2019-05-29T09:31:22.166Z,13.93
2019-05-29T09:34:25.939Z,13.51
2019-05-29T09:37:29.687Z,13.69
2019-05-29T09:40:33.488Z,13.80
2019-05-29T09:43:37.178Z,13.42
2019-05-29T09:46:40.877Z,13.21
2019-05-29T09:49:44.595Z,13.15
2019-05-29T09:52:48.723Z,13.11
2019-05-29T09:55:54.138Z,12.99
2019-05-29T09:59:00.443Z,13.04
2019-05-29T10:02:08.351Z,13.05
2019-05-29T10:05:10.252Z,13.13
2019-05-29T10:08:16.965Z,13.50
2019-05-29T10:11:19.628Z,14.52
2019-05-29T10:14:23.343Z,15.11
2019-05-29T10:17:27.133Z,15.61
2019-05-29T10:20:30.923Z,15.26
2019-05-29T10:23:34.847Z,14.68
2019-05-29T10:26:38.571Z,14.97
2019-05-29T10:29:42.507Z,14.51
2019-05-29T10:32:46.415Z,14.89
2019-05-29T10:35:53.521Z,14.84
2019-05-29T10:38:55.730Z,14.36
2019-05-29T10:41:59.458Z,14.36
2019-05-29T10:45:03.275Z,14.54
2019-05-29T10:48:06.992Z,14.48
2019-05-29T10:51:10.721Z,14.56
2019-05-29T10:54:14.692Z,14.44
2019-05-29T10:57:18.409Z,14.79
2019-05-29T11:00:22.399Z,14.89
2019-05-29T11:03:26.513Z,15.11
2019-05-29T11:06:30.652Z,15.17
2019-05-29T11:09:44.067Z,15.33
2019-05-29T11:12:40.158Z,17.32
2019-05-29T11:15:44.024Z,18.51
2019-05-29T11:18:49.083Z,17.33
2019-05-29T11:21:53.962Z,18.33
2019-05-29T11:25:20.683Z,17.77
2019-05-29T11:28:05.195Z,17.49
2019-05-29T11:31:09.001Z,17.45
2019-05-29T11:34:12.704Z,17.44
2019-05-29T11:37:16.855Z,17.47
2019-05-29T11:40:20.820Z,16.69
2019-05-29T11:43:24.791Z,15.86
2019-05-29T11:46:28.547Z,15.44
2019-05-29T11:49:32.228Z,15.59
2019-05-29T11:52:42.708Z,15.18
2019-05-29T11:55:41.717Z,14.94
2019-05-29T11:58:45.732Z,14.83
2019-05-29T12:01:50.890Z,14.83
2019-05-29T12:04:55.393Z,14.68
2019-05-29T12:07:59.598Z,14.62
2019-05-29T12:11:06.801Z,14.86
2019-05-29T12:14:08.959Z,15.19
2019-05-29T12:17:12.687Z,17.43
2019-05-29T12:20:31.920Z,18.61
2019-05-29T12:23:26.496Z,17.66
2019-05-29T12:26:27.388Z,16.87
2019-05-29T12:29:31.105Z,16.30
2019-05-29T12:32:35.144Z,16.46
2019-05-29T12:35:38.917Z,17.57
2019-05-29T12:38:42.638Z,17.83
2019-05-29T12:41:46.512Z,17.22
2019-05-29T12:44:50.242Z,16.30
2019-05-29T12:47:56.081Z,17.08
2019-05-29T12:51:00.353Z,17.09
2019-05-29T12:54:05.241Z,16.61
2019-05-29T12:57:09.094Z,16.65
2019-05-29T13:00:13.866Z,17.66
2019-05-29T13:03:17.618Z,18.44
2019-05-29T13:06:21.311Z,17.73
2019-05-29T13:09:25.051Z,18.97
2019-05-29T13:12:29.046Z,18.87
2019-05-29T13:15:32.816Z,18.78
2019-05-29T13:18:36.881Z,19.02
2019-05-29T13:21:40.583Z,19.16
2019-05-29T13:24:44.894Z,19.55
2019-05-29T13:27:48.960Z,19.51
2019-05-29T13:30:52.684Z,19.85
2019-05-29T13:33:57.540Z,19.77
2019-05-29T13:37:04.721Z,20.00
2019-05-29T13:40:08.512Z,19.82
2019-05-29T13:43:15.566Z,20.35
2019-05-29T13:46:18.063Z,19.50
2019-05-29T13:49:21.767Z,18.88
2019-05-29T13:52:25.870Z,18.34
2019-05-29T13:55:29.577Z,17.99
2019-05-29T13:58:33.623Z,18.19
2019-05-29T14:01:37.315Z,18.25
2019-05-29T14:04:41.019Z,17.73
2019-05-29T14:07:44.849Z,17.67
2019-05-29T14:10:48.847Z,18.38
2019-05-29T14:13:52.557Z,18.52
2019-05-29T14:16:56.294Z,19.04
2019-05-29T14:20:00.512Z,18.53
2019-05-29T14:23:05.335Z,19.24
2019-05-29T14:26:09.143Z,18.47
2019-05-29T14:29:13.096Z,18.39
2019-05-29T14:32:17.107Z,18.07
2019-05-29T14:35:20.868Z,18.18
2019-05-29T14:38:24.573Z,17.82
2019-05-29T14:41:28.295Z,17.59
2019-05-29T14:44:32.037Z,17.49
2019-05-29T14:47:36.342Z,17.48
2019-05-29T14:50:40.060Z,17.48
2019-05-29T14:53:44.170Z,17.15
2019-05-29T14:56:48.011Z,16.97
2019-05-29T14:59:51.919Z,16.96
2019-05-29T15:02:55.646Z,16.83
2019-05-29T15:05:59.377Z,16.82
2019-05-29T15:09:03.595Z,16.62
2019-05-29T15:12:08.004Z,16.65
2019-05-29T15:15:16.262Z,16.70
2019-05-29T15:18:19.311Z,16.58
2019-05-29T15:21:23.477Z,16.72
2019-05-29T15:24:27.204Z,16.71
2019-05-29T15:27:30.936Z,16.59
2019-05-29T15:30:34.886Z,16.23
2019-05-29T15:33:38.680Z,16.11
2019-05-29T15:36:42.366Z,16.25
2019-05-29T15:39:46.096Z,16.33
2019-05-29T15:42:49.872Z,16.21
2019-05-29T15:45:53.580Z,16.07
2019-05-29T15:48:57.289Z,16.07
2019-05-29T15:52:01.263Z,16.02
2019-05-29T15:55:21.196Z,15.88
2019-05-29T15:58:11.241Z,16.08
2019-05-29T16:01:15.755Z,16.14
2019-05-29T16:04:19.411Z,16.53
2019-05-29T16:07:23.699Z,16.43
2019-05-29T16:10:27.824Z,16.30
2019-05-29T16:13:31.831Z,16.21
2019-05-29T16:16:35.765Z,16.16
2019-05-29T16:19:39.447Z,16.04
2019-05-29T16:22:43.145Z,16.01
2019-05-29T16:25:46.891Z,15.93
2019-05-29T16:28:50.878Z,15.83
2019-05-29T16:31:54.586Z,16.03
2019-05-29T16:34:58.543Z,15.91
2019-05-29T16:38:02.285Z,15.84
2019-05-29T16:41:06.425Z,15.76
2019-05-29T16:44:10.132Z,15.95
2019-05-29T16:47:14.739Z,15.90
2019-05-29T16:50:19.470Z,15.77
2019-05-29T16:53:24.395Z,15.69
2019-05-29T16:56:28.416Z,15.47
2019-05-29T16:59:32.244Z,15.31
2019-05-29T17:02:36.037Z,15.55
2019-05-29T17:05:39.736Z,15.48
2019-05-29T17:08:43.814Z,15.47
2019-05-29T17:11:47.505Z,15.47
2019-05-29T17:14:51.457Z,15.39
2019-05-29T17:17:55.182Z,15.17
2019-05-29T17:20:59.191Z,15.40
2019-05-29T17:24:02.980Z,15.13
2019-05-29T17:27:07.000Z,15.26
2019-05-29T17:30:12.264Z,15.36
2019-05-29T17:33:17.008Z,15.24
2019-05-29T17:36:21.142Z,15.19
2019-05-29T17:39:25.408Z,15.19
2019-05-29T17:42:29.128Z,15.25
2019-05-29T17:45:33.456Z,15.25
2019-05-29T17:48:37.485Z,14.88
2019-05-29T17:51:41.208Z,14.76
2019-05-29T17:54:45.161Z,14.62
2019-05-29T17:57:49.139Z,14.61
2019-05-29T18:00:53.005Z,14.50
2019-05-29T18:03:56.691Z,14.33
2019-05-29T18:07:00.464Z,14.34
2019-05-29T18:10:04.999Z,14.69
2019-05-29T18:13:08.805Z,14.46
2019-05-29T18:16:12.576Z,14.21
2019-05-29T18:19:17.447Z,14.10
2019-05-29T18:22:21.694Z,13.95
2019-05-29T18:25:26.056Z,13.94
2019-05-29T18:28:29.752Z,13.74
2019-05-29T18:31:33.481Z,13.69
2019-05-29T18:34:37.252Z,13.58
2019-05-29T18:37:41.687Z,13.48
2019-05-29T18:40:45.578Z,13.39
2019-05-29T18:43:49.357Z,13.26
2019-05-29T18:46:53.223Z,13.15
2019-05-29T18:49:56.948Z,13.20
2019-05-29T18:53:00.786Z,13.08
2019-05-29T18:56:04.755Z,12.99
2019-05-29T18:59:08.749Z,12.93
2019-05-29T19:02:12.797Z,12.89
2019-05-29T19:05:17.617Z,12.71
2019-05-29T19:08:21.684Z,12.63
2019-05-29T19:11:25.918Z,12.51
2019-05-29T19:14:29.992Z,12.43
2019-05-29T19:17:34.013Z,12.39
2019-05-29T19:20:37.984Z,12.23
2019-05-29T19:23:41.782Z,12.09
2019-05-29T19:26:45.500Z,12.05
2019-05-29T19:29:49.237Z,11.95
2019-05-29T19:32:52.928Z,11.87
2019-05-29T19:35:56.642Z,11.75
2019-05-29T19:39:00.587Z,11.66
2019-05-29T19:42:04.411Z,11.61
2019-05-29T19:45:08.927Z,11.50
2019-05-29T19:48:12.657Z,11.43
2019-05-29T19:51:16.722Z,11.36
2019-05-29T19:54:20.428Z,11.24
2019-05-29T19:57:24.136Z,11.17
2019-05-29T20:00:28.120Z,11.07
2019-05-29T20:03:32.567Z,11.01
2019-05-29T20:06:37.239Z,10.94
2019-05-29T20:09:41.044Z,10.93
2019-05-29T20:12:45.434Z,10.86
2019-05-29T20:15:49.222Z,10.76
2019-05-29T20:18:53.253Z,10.46
2019-05-29T20:21:57.210Z,10.45
2019-05-29T20:25:01.295Z,10.39
2019-05-29T20:28:06.858Z,10.33
2019-05-29T20:31:12.232Z,10.37
2019-05-29T20:34:16.054Z,10.45
2019-05-29T20:37:20.132Z,10.33
2019-05-29T20:40:23.918Z,10.26
2019-05-29T20:43:27.898Z,10.25
2019-05-29T20:46:32.483Z,10.17
2019-05-29T20:49:36.252Z,10.22
2019-05-29T20:52:40.003Z,10.15
2019-05-29T20:55:43.990Z,10.03
2019-05-29T20:58:47.974Z,10.00
2019-05-29T21:01:51.745Z,9.98
2019-05-29T21:04:55.534Z,10.01
2019-05-29T21:07:59.271Z,9.91
2019-05-29T21:11:03.086Z,9.88
2019-05-29T21:14:06.860Z,9.84
2019-05-29T21:17:10.612Z,9.74
2019-05-29T21:20:14.833Z,9.71
2019-05-29T21:23:18.611Z,9.71
2019-05-29T21:26:22.451Z,9.63
2019-05-29T21:29:26.782Z,9.67
2019-05-29T21:32:30.507Z,9.51
2019-05-29T21:35:35.972Z,9.64
2019-05-29T21:38:40.127Z,9.67
2019-05-29T21:41:44.645Z,9.62
2019-05-29T21:44:48.490Z,9.61
2019-05-29T21:47:52.527Z,9.65
2019-05-29T21:50:56.297Z,9.54
2019-05-29T21:54:00.315Z,9.60
2019-05-29T21:57:04.062Z,9.52
2019-05-29T22:00:10.219Z,9.46
2019-05-29T22:03:14.228Z,9.56
2019-05-29T22:06:18.066Z,9.65
2019-05-29T22:09:21.870Z,9.59
2019-05-29T22:12:26.247Z,9.52
2019-05-29T22:15:30.529Z,9.57
2019-05-29T22:18:34.370Z,9.58
2019-05-29T22:21:38.471Z,9.66
2019-05-29T22:24:42.660Z,9.57
2019-05-29T22:27:46.383Z,9.66
2019-05-29T22:30:51.284Z,9.58
2019-05-29T22:33:55.404Z,9.61
2019-05-29T22:36:59.614Z,9.66
2019-05-29T22:40:03.451Z,9.60
2019-05-29T22:43:07.215Z,9.74
2019-05-29T22:46:10.930Z,9.71
2019-05-29T22:49:14.889Z,9.65
2019-05-29T22:52:18.676Z,9.67
2019-05-29T22:55:22.479Z,9.67
2019-05-29T22:58:26.517Z,9.85
2019-05-29T23:01:30.228Z,9.61
2019-05-29T23:04:34.005Z,9.72
2019-05-29T23:07:38.009Z,9.82
2019-05-29T23:10:41.726Z,9.95
2019-05-29T23:13:45.419Z,10.01
2019-05-29T23:16:49.128Z,9.89
2019-05-29T23:19:52.895Z,9.94
2019-05-29T23:22:56.592Z,9.79
2019-05-29T23:26:00.794Z,9.80
2019-05-29T23:29:04.761Z,9.89
2019-05-29T23:32:08.481Z,10.02
2019-05-29T23:35:12.704Z,10.06
2019-05-29T23:38:16.665Z,9.99
2019-05-29T23:41:20.983Z,9.85
2019-05-29T23:44:24.779Z,9.82
2019-05-29T23:47:28.603Z,9.98
2019-05-29T23:50:32.309Z,10.05
2019-05-29T23:53:36.105Z,9.92
2019-05-29T23:56:39.802Z,9.92
2019-05-29T23:59:43.504Z,10.07
